ZMUB/ULN METAR and TAF weather

Enter ICAO airport designator
Station Type Date Time Source
ZMUB METAR 2019/02/16 07:30 UTC NOAA

ZMUB 160730Z VRB02MPS CAVOK M09/M21 Q1027 NOSIG RMK QFE661.7 31


Station Type Date Time Source
ZMUB Decoded METAR 2019/02/16 07:30 UTC NOAA

Ulan-Bator, Mongolia (ZMUB) 47-51N 106-46E
Feb 16, 2019 - 02:30 AM EST / 2019.02.16 0730 UTC
Wind: Variable at 4 MPH (4 KT):0
Visibility: greater than 7 mile(s):0
Temperature: 15 F (-9 C)
Dew Point: -5 F (-21 C)
Relative Humidity: 37%
Pressure (altimeter): 30.33 in. Hg (1027 hPa)
ob: ZMUB 160730Z VRB02MPS CAVOK M09/M21 Q1027 NOSIG RMK QFE661.7 31
cycle: 7

Station Type Date Time Source
ZMUB TAF 2019/02/16 06:45 UTC NOAA

TAF TAF ZMUB 160440Z 1606/1712 VRB02MPS 6000 NSC TXM09/1607Z TNM28/1623Z
BECMG 1700/1702 4000 FU SCT100
BECMG 1704/1706 6000


Example: see airport list